Data for 07/14/2006

Time Sea-Level Adjusted Pressure Absolute Pressure Temperature Relative Humidity Dew Point   
(mb) (inHg) (mb) (inHg) (C) (F) (%) (C) (F)
00:05 1020 30.12 849 25.07 18.7 65.6 47 7.3 45.1
00:10 1020 30.12 849 25.07 18.4 65.2 47 7.1 44.8
00:15 1020 30.12 849 25.07 18.4 65.2 47 7.1 44.8
00:20 1020 30.12 849 25.07 18.4 65 48 7.1 44.9
00:25 1020 30.12 849 25.07 18.2 64.8 48 7.1 44.8
00:30 1020 30.12 850 25.1 18.2 64.7 47 6.7 44.1
00:35 1020 30.12 850 25.1 18.1 64.6 47 6.8 44.3
00:40 1020 30.12 849 25.07 18.2 64.8 46 6.6 43.9
00:45 1020 30.12 850 25.1 18.3 64.9 46 6.5 43.8
00:50 1020 30.12 850 25.1 18.1 64.5 48 7 44.5
00:55 1020 30.12 850 25.1 18.1 64.6 46 6.6 43.8
01:00 1020 30.12 850 25.1 17.9 64.1 50 7.3 45.2
01:05 1020 30.12 850 25.1 17.5 63.6 49 6.9 44.4
01:10 1020 30.12 850 25.1 17.5 63.4 53 7.9 46.2
01:15 1020 30.12 850 25.1 17.2 62.9 52 7.3 45.1
01:20 1020 30.12 850 25.1 17.2 63 51 7.1 44.7
01:25 1020 30.12 850 25.1 17.2 63 50 6.9 44.4
01:30 1020 30.12 850 25.1 17.5 63.6 49 6.8 44.3
01:35 1020 30.12 850 25.1 17.7 63.8 49 7.1 44.8
01:40 1021 30.15 850 25.1 17.2 62.9 58 8.8 47.9
01:45 1020 30.12 850 25.1 17.9 64.1 50 7.6 45.6
01:50 1021 30.15 850 25.1 17.2 62.9 52 7.4 45.2
01:55 1021 30.15 850 25.1 16.8 62.2 54 7.5 45.4
02:00 1021 30.15 850 25.1 16.7 62 54 7.4 45.3
02:05 1021 30.15 850 25.1 16.6 61.9 55 7.5 45.5
02:10 1021 30.15 850 25.1 16.1 60.9 58 7.8 46
02:15 1021 30.15 850 25.1 15.3 59.5 63 8.3 46.9
02:20 1021 30.15 850 25.1 15 58.9 60 7.2 45
02:25 1021 30.15 850 25.1 15.4 59.7 57 7 44.7
02:30 1021 30.15 850 25.1 15.7 60.2 56 6.9 44.4
02:35 1021 30.15 850 25.1 15.6 60.1 58 7.5 45.5
02:40 1021 30.15 850 25.1 15.1 59.2 60 7.4 45.3
02:45 1021 30.15 850 25.1 15.4 59.7 59 7.6 45.6
02:50 1021 30.15 850 25.1 15 59.1 60 7.3 45.2
02:55 1021 30.15 850 25.1 14.9 58.9 62 7.8 46.1
03:00 1021 30.15 850 25.1 15 58.9 61 7.5 45.5
03:05 1021 30.15 850 25.1 14.7 58.4 61 7.3 45.2
03:10 1021 30.15 850 25.1 14.5 58 62 7.4 45.3
03:15 1021 30.15 850 25.1 14.6 58.3 63 7.6 45.7
03:20 1021 30.15 851 25.13 14.8 58.7 60 7.2 45
03:25 1021 30.15 851 25.13 14.5 58 60 6.9 44.3
03:30 1021 30.15 851 25.13 14.5 58.2 60 7 44.5
03:35 1021 30.15 851 25.13 14.6 58.2 61 7.2 45
03:40 1022 30.18 851 25.13 14.4 57.9 63 7.5 45.5
03:45 1022 30.18 851 25.13 13.9 57 62 6.8 44.3
03:50 1022 30.18 851 25.13 14 57.1 62 6.9 44.4
03:55 1022 30.18 851 25.13 14.1 57.4 62 6.9 44.5
04:00 1022 30.18 851 25.13 14.4 58 62 7.4 45.3
04:05 1022 30.18 851 25.13 14.3 57.8 61 7.1 44.8
04:10 1022 30.18 851 25.13 14 57.2 62 7 44.5
04:15 1022 30.18 851 25.13 13.5 56.3 64 7 44.5
04:20 1022 30.18 851 25.13 13.1 55.6 67 7.1 44.8
04:25 1022 30.18 851 25.13 12.6 54.7 70 7.4 45.3
04:30 1022 30.18 851 25.13 12.5 54.4 67 6.5 43.8
04:35 1022 30.18 851 25.13 13.5 56.3 62 6.5 43.7
04:40 1022 30.18 851 25.13 13.5 56.3 64 6.9 44.4
04:45 1022 30.18 851 25.13 13.5 56.3 61 6.2 43.2
04:50 1022 30.18 851 25.13 14 57.1 60 6.4 43.5
04:55 1022 30.18 851 25.13 13.8 56.8 62 6.7 44.1
05:00 1022 30.18 851 25.13 14.2 57.5 59 6.3 43.4
05:05 1022 30.18 851 25.13 14.4 57.9 58 6.4 43.4
05:10 1022 30.18 851 25.13 14.5 58 62 7.4 45.4
05:15 1022 30.18 851 25.13 13.7 56.6 65 7.1 44.9
05:20 1022 30.18 851 25.13 12.9 55.1 65 6.6 43.9
05:25 1022 30.18 851 25.13 13.1 55.6 64 6.4 43.6
05:30 1022 30.18 851 25.13 13 55.4 64 6.5 43.8
05:35 1022 30.18 851 25.13 13 55.4 64 6.5 43.7
05:40 1022 30.18 851 25.13 13.1 55.7 63 6.4 43.5
05:45 1022 30.18 851 25.13 13.2 55.7 61 6 42.7
05:50 1022 30.18 851 25.13 13.3 55.9 63 6.5 43.6
05:55 1022 30.18 851 25.13 12.9 55.2 64 6.2 43.2
06:00 1022 30.18 851 25.13 13.1 55.5 65 6.6 43.9
06:05 1022 30.18 851 25.13 13.4 56 60 5.7 42.3
06:10 1022 30.18 852 25.16 13.3 55.9 61 6 42.7
06:15 1022 30.18 852 25.16 13.6 56.5 60 6 42.8
06:20 1022 30.18 852 25.16 13.9 57 57 5.6 42.1
06:25 1022 30.18 852 25.16 14.1 57.4 59 6.3 43.4
06:30 1022 30.18 852 25.16 13.8 56.8 58 5.7 42.3
06:35 1023 30.21 852 25.16 14 57.1 56 5.5 41.8
06:40 1022 30.18 852 25.16 14.3 57.7 56 5.6 42.1
06:45 1023 30.21 852 25.16 14.2 57.6 58 6 42.9
06:50 1023 30.21 852 25.16 14.1 57.4 57 5.8 42.4
06:55 1023 30.21 852 25.16 14.2 57.5 58 6.1 42.9
07:00 1023 30.21 852 25.16 14.3 57.7 58 6.2 43.2
07:05 1023 30.21 852 25.16 14.5 58.1 58 6.4 43.6
07:10 1023 30.21 852 25.16 14.5 58.1 61 7.1 44.7
07:15 1023 30.21 852 25.16 14.6 58.2 58 6.6 43.8
07:20 1023 30.21 852 25.16 14.7 58.4 59 6.7 44.1
07:25 1023 30.21 852 25.16 14.8 58.6 57 6.3 43.4
07:30 1023 30.21 852 25.16 15.1 59.1 56 6.6 43.8
07:35 1023 30.21 852 25.16 15.4 59.8 56 6.7 44.1
07:40 1023 30.21 852 25.16 15.7 60.2 57 7.2 45
07:45 1023 30.21 852 25.16 16 60.8 56 7.2 45
07:50 1023 30.21 852 25.16 16 60.8 56 7.4 45.4
07:55 1023 30.21 852 25.16 16.2 61.2 57 7.7 45.8
08:00 1023 30.21 852 25.16 16.8 62.3 55 7.7 45.9
08:05 1023 30.21 852 25.16 17.1 62.7 52 7.2 44.9
08:10 1023 30.21 852 25.16 17.2 62.9 53 7.7 45.9
08:15 1023 30.21 852 25.16 17.4 63.2 52 7.4 45.4
08:20 1023 30.21 852 25.16 17.7 63.8 51 7.5 45.5
08:25 1023 30.21 852 25.16 18 64.3 51 7.7 45.8
08:30 1023 30.21 852 25.16 18.5 65.3 49 7.8 46.1
08:35 1023 30.21 852 25.16 19.1 66.4 48 8.1 46.6
08:40 1023 30.21 852 25.16 19.2 66.5 47 7.7 45.9
08:45 1023 30.21 852 25.16 19.1 66.4 47 7.6 45.7
08:50 1023 30.21 852 25.16 19.4 66.9 46 7.5 45.5
08:55 1023 30.21 852 25.16 20 67.9 43 7 44.6
09:00 1023 30.21 852 25.16 20.8 69.4 42 7.7 45.8
09:05 1023 30.21 852 25.16 21.2 70.1 40 7.2 44.9
09:10 1023 30.21 852 25.16 21.5 70.8 39 7.2 45
09:15 1023 30.21 852 25.16 21.9 71.4 40 7.9 46.2
09:20 1023 30.21 852 25.16 21.8 71.3 38 6.9 44.4
09:25 1023 30.21 852 25.16 22.3 72.2 34 5.9 42.6
09:30 1023 30.21 852 25.16 22.9 73.1 34 6.5 43.7
09:35 1023 30.21 852 25.16 23.3 74 33 6.2 43.1
09:40 1023 30.21 852 25.16 23.7 74.6 33 6.6 43.9
09:45 1023 30.21 852 25.16 24 75.1 32 6.4 43.5
09:50 1023 30.21 852 25.16 24.6 76.3 28 5 41
09:55 1023 30.21 852 25.16 24.6 76.3 28 5 41
10:00 1023 30.21 852 25.16 24.9 76.8 29 5.7 42.3
10:05 1023 30.21 852 25.16 25 77 30 6.4 43.5
10:10 1022 30.18 852 25.16 24.5 76.1 31 6.5 43.7
10:15 1022 30.18 852 25.16 24.3 75.8 31 6.5 43.7
10:20 1022 30.18 852 25.16 25.6 78 29 6.3 43.3
10:25 1022 30.18 852 25.16 26.2 79.1 29 6.8 44.3
10:30 1022 30.18 852 25.16 25.6 78.2 30 7 44.7
10:35 1022 30.18 852 25.16 25.3 77.5 29 6.3 43.4
10:40 1022 30.18 852 25.16 25.7 78.3 28 6.4 43.4
10:45 1022 30.18 852 25.16 26 78.9 29 6.8 44.3
10:50 1022 30.18 852 25.16 26.1 79 29 6.9 44.3
10:55 1022 30.18 851 25.13 26.5 79.6 29 7.3 45.1
11:00 1022 30.18 851 25.13 26.5 79.7 29 7.3 45.1
11:05 1022 30.18 851 25.13 26.3 79.3 28 6.4 43.4
11:10 1022 30.18 851 25.13 26.6 79.9 28 7 44.7
11:15 1022 30.18 851 25.13 26.4 79.4 29 7.1 44.8
11:20 1022 30.18 851 25.13 26.3 79.3 29 6.9 44.5
11:25 1022 30.18 851 25.13 27.1 80.8 26 6.2 43.1
11:30 1022 30.18 851 25.13 26.9 80.3 28 7.1 44.7
11:35 1022 30.18 851 25.13 27.1 80.7 26 6.2 43.1
11:40 1022 30.18 851 25.13 27.3 81.1 25 5.8 42.4
11:45 1022 30.18 851 25.13 28 82.5 24 5.9 42.7
11:50 1022 30.18 851 25.13 29 84.2 22 5.7 42.2
11:55 1022 30.18 851 25.13 28.8 83.8 23 5.7 42.3
12:00 1022 30.18 851 25.13 29.2 84.5 23 6 42.7
12:05 1022 30.18 851 25.13 29.7 85.5 21 5.6 42
12:10 1022 30.18 851 25.13 29.4 85 19 3.8 38.8
12:15 1022 30.18 851 25.13 29.1 84.4 20 4.3 39.8
12:20 1022 30.18 851 25.13 29.7 85.5 21 5.4 41.7
12:25 1021 30.15 851 25.13 30.1 86.1 19 4.5 40.1
12:30 1021 30.15 851 25.13 30.2 86.3 16 1.9 35.4
12:35 1021 30.15 851 25.13 30.5 86.8 16 2.3 36.2
12:40 1021 30.15 851 25.13 30.7 87.2 17 2.9 37.3
12:45 1021 30.15 850 25.1 30.9 87.7 16 2.8 37
12:50 1021 30.15 850 25.1 31.4 88.6 16 3.1 37.6
12:55 1021 30.15 850 25.1 31.6 88.8 17 3.7 38.7
13:00 1021 30.15 850 25.1 31.4 88.5 16 3.1 37.5
13:05 1021 30.15 850 25.1 31.2 88.2 18 4.2 39.6
13:10 1021 30.15 850 25.1 31.1 88.1 17 3.9 39
13:15 1021 30.15 850 25.1 31.2 88.2 17 3.6 38.4
13:20 1021 30.15 850 25.1 31.4 88.5 16 3.1 37.5
13:25 1021 30.15 850 25.1 31.2 88.1 19 4.9 40.9
13:30 1021 30.15 850 25.1 31.2 88.2 16 2.6 36.7
13:35 1021 30.15 850 25.1 31.5 88.6 16 3 37.5
13:40 1021 30.15 850 25.1 31 87.8 18 4.5 40
13:45 1021 30.15 850 25.1 31.1 88.1 17 3.9 39
13:50 1021 30.15 850 25.1 31.5 88.6 16 3 37.5
13:55 1021 30.15 850 25.1 31.5 88.8 16 3.2 37.7
14:00 1021 30.15 850 25.1 31.8 89.3 15 2.2 36
14:05 1021 30.15 850 25.1 32 89.5 15 2.3 36.2
14:10 1021 30.15 850 25.1 32.1 89.7 15 2.2 36
14:15 1020 30.12 850 25.1 32.5 90.4 15 3.3 37.9
14:20 1020 30.12 850 25.1 31.9 89.4 16 3.3 37.9
14:25 1020 30.12 850 25.1 32 89.6 15 2.7 36.8
14:30 1020 30.12 850 25.1 32.5 90.6 15 3.2 37.8
14:35 1020 30.12 849 25.07 33 91.4 14 2.5 36.5
14:40 1020 30.12 849 25.07 32.7 90.8 15 2.6 36.7
14:45 1020 30.12 849 25.07 31.9 89.5 15 2.9 37.2
14:50 1020 30.12 849 25.07 31.8 89.3 15 2.6 36.6
14:55 1020 30.12 849 25.07 32.7 90.9 14 2.5 36.6
15:00 1020 30.12 849 25.07 32.6 90.6 15 2.7 36.9
15:05 1020 30.12 849 25.07 32.9 91.3 14 2.8 37.1
15:10 1020 30.12 849 25.07 33.2 91.7 13 1.2 34.1
15:15 1020 30.12 849 25.07 32.8 91 14 1.7 35.1
15:20 1020 30.12 849 25.07 32.1 89.8 14 1.4 34.5
15:25 1020 30.12 849 25.07 32.7 90.8 13 1.5 34.8
15:30 1020 30.12 849 25.07 32.7 90.9 14 2.6 36.7
15:35 1020 30.12 849 25.07 32.9 91.2 15 3.2 37.7
15:40 1020 30.12 849 25.07 33.4 92.1 14 2.9 37.2
15:45 1020 30.12 849 25.07 33.9 92.9 14 3.4 38.1
15:50 1020 30.12 849 25.07 33.9 93 14 2.6 36.7
15:55 1020 30.12 849 25.07 34.2 93.5 14 3.6 38.5
16:00 1020 30.12 849 25.07 34 93.1 14 3.6 38.5
16:05 1019 30.09 849 25.07 33.6 92.5 14 2.9 37.2
16:10 1019 30.09 849 25.07 33.8 92.8 13 2.2 36
16:15 1019 30.09 849 25.07 33.2 91.8 13 1.4 34.6
16:20 1019 30.09 849 25.07 33.5 92.3 13 1.3 34.4
16:25 1019 30.09 848 25.04 33.6 92.4 13 1.9 35.4
16:30 1019 30.09 848 25.04 33.6 92.5 12 1.1 34
16:35 1019 30.09 848 25.04 33.7 92.6 13 1.8 35.3
16:40 1019 30.09 848 25.04 34.1 93.3 14 3.3 38
16:45 1019 30.09 848 25.04 33.8 92.8 14 2.5 36.6
16:50 1019 30.09 848 25.04 33.2 91.8 13 1.6 34.9
16:55 1019 30.09 848 25.04 33.2 91.8 14 2.6 36.6
17:00 1019 30.09 848 25.04 33.3 91.9 14 2.9 37.3
17:05 1019 30.09 848 25.04 33.2 91.8 14 2.6 36.6
17:10 1019 30.09 848 25.04 33.2 91.7 14 2.6 36.7
17:15 1019 30.09 848 25.04 33.3 91.9 14 2.5 36.5
17:20 1019 30.09 848 25.04 33.5 92.3 14 3.2 37.8
17:25 1019 30.09 848 25.04 33.7 92.7 14 2.8 37.1
17:30 1019 30.09 848 25.04 33.4 92.1 15 3.4 38.2
17:35 1019 30.09 848 25.04 33.5 92.2 14 3 37.4
17:40 1019 30.09 848 25.04 33.4 92 14 2.9 37.3
17:45 1019 30.09 848 25.04 33.3 91.9 14 2.2 35.9
17:50 1019 30.09 848 25.04 33.4 92.2 14 2.3 36.1
17:55 1019 30.09 848 25.04 33.1 91.5 14 2.3 36.1
18:00 1019 30.09 848 25.04 33 91.4 14 2.4 36.3
18:05 1019 30.09 848 25.04 32.7 90.8 14 2.5 36.4
18:10 1019 30.09 848 25.04 32.7 90.8 15 2.6 36.7
18:15 1019 30.09 848 25.04 32.9 91.3 14 2.6 36.7
18:20 1019 30.09 848 25.04 33.2 91.7 14 2.9 37.3
18:25 1019 30.09 848 25.04 33 91.4 14 2.6 36.6
18:30 1019 30.09 848 25.04 33 91.3 15 3.2 37.8
18:35 1019 30.09 848 25.04 33.4 92.1 15 3.3 37.9
18:40 1019 30.09 848 25.04 33.2 91.8 15 3.4 38.1
18:45 1019 30.09 848 25.04 33.1 91.6 14 2.4 36.4
18:50 1019 30.09 848 25.04 32.8 91 15 3.3 38
18:55 1018 30.06 848 25.04 32.9 91.2 15 3.7 38.6
19:00 1018 30.06 848 25.04 32.8 91 15 3.6 38.5
19:05 1018 30.06 848 25.04 32.6 90.8 15 3.5 38.2
19:10 1018 30.06 848 25.04 32.5 90.5 15 2.6 36.7
19:15 1019 30.09 848 25.04 32.5 90.4 16 3.8 38.8
19:20 1018 30.06 848 25.04 32.6 90.7 16 4.2 39.6
19:25 1018 30.06 848 25.04 32.5 90.4 18 5.2 41.4
19:30 1018 30.06 848 25.04 31.6 88.9 19 5.7 42.2
19:35 1018 30.06 848 25.04 31.4 88.5 20 5.9 42.7
19:40 1018 30.06 848 25.04 31.3 88.4 18 4.8 40.6
19:45 1018 30.06 848 25.04 31.3 88.3 19 5.2 41.3
19:50 1019 30.09 848 25.04 31.1 88 20 5.6 42.1
19:55 1019 30.09 848 25.04 31 87.8 20 5.8 42.5
20:00 1019 30.09 848 25.04 30.8 87.5 19 5.2 41.4
20:05 1018 30.06 848 25.04 30.7 87.2 20 5.2 41.4
20:10 1019 30.09 848 25.04 30.5 86.9 19 4.8 40.7
20:15 1018 30.06 848 25.04 30.3 86.5 20 5.2 41.4
20:20 1018 30.06 848 25.04 30 85.9 22 6.3 43.3
20:25 1018 30.06 848 25.04 29.2 84.5 24 7 44.6
20:30 1018 30.06 848 25.04 28.9 84.1 23 5.9 42.7
20:35 1018 30.06 848 25.04 28.6 83.6 23 5.9 42.7
20:40 1019 30.09 848 25.04 28.4 83.2 24 6 42.8
20:45 1019 30.09 848 25.04 28.1 82.5 24 5.8 42.5
20:50 1019 30.09 848 25.04 28 82.4 25 6.7 44
20:55 1019 30.09 848 25.04 27.8 82 27 7.3 45.1
21:00 1019 30.09 848 25.04 27.7 81.8 28 8 46.5
21:05 1019 30.09 848 25.04 27.2 81 30 8.4 47.2
21:10 1019 30.09 848 25.04 26.7 80.1 29 7.3 45.1
21:15 1019 30.09 848 25.04 26.4 79.4 29 7.2 45
21:20 1019 30.09 848 25.04 26.1 79 31 8 46.4
21:25 1019 30.09 848 25.04 25.7 78.3 29 6.7 44.1
21:30 1019 30.09 848 25.04 25.3 77.6 31 7.2 45
21:35 1019 30.09 848 25.04 25.1 77.1 34 8.1 46.7
21:40 1019 30.09 848 25.04 24.9 76.9 29 5.9 42.6
21:45 1019 30.09 848 25.04 24.8 76.6 29 5.8 42.4
21:50 1019 30.09 848 25.04 24.7 76.4 30 6.2 43.1
21:55 1019 30.09 848 25.04 24.8 76.6 28 5.3 41.5
22:00 1019 30.09 848 25.04 24.7 76.5 29 5.5 41.9
22:05 1019 30.09 848 25.04 24.8 76.7 26 4.1 39.3
22:10 1019 30.09 848 25.04 25.3 77.5 26 4.4 39.9
22:15 1019 30.09 848 25.04 25.1 77.2 27 4.9 40.8
22:20 1019 30.09 848 25.04 24.8 76.6 29 5.6 42.1
22:25 1019 30.09 848 25.04 25.3 77.5 23 3 37.3
22:30 1019 30.09 848 25.04 26.1 79 22 3.1 37.7
22:35 1019 30.09 848 25.04 26 78.8 24 3.9 39
22:40 1019 30.09 848 25.04 25.6 78.1 25 4.3 39.8
22:45 1019 30.09 848 25.04 25.8 78.4 22 2.5 36.6
22:50 1019 30.09 848 25.04 26.4 79.6 22 3.5 38.3
22:55 1019 30.09 848 25.04 25.9 78.6 24 3.8 38.8
23:00 1019 30.09 848 25.04 25.6 78 24 3.7 38.7
23:05 1019 30.09 848 25.04 25.5 77.8 23 3.4 38.1
23:10 1019 30.09 848 25.04 25.4 77.7 24 3.7 38.6
23:15 1019 30.09 848 25.04 25 76.9 26 4.4 39.9
23:20 1019 30.09 848 25.04 24.8 76.7 26 4.1 39.4
23:25 1019 30.09 848 25.04 24.8 76.7 26 4 39.3
23:30 1019 30.09 848 25.04 24.4 76 26 3.8 38.8
23:35 1019 30.09 848 25.04 24.9 76.7 23 2.6 36.8
23:40 1019 30.09 848 25.04 24.7 76.5 26 4.3 39.8
23:45 1019 30.09 848 25.04 23.8 74.8 30 5.6 42.2
23:50 1019 30.09 848 25.04 22.7 72.9 33 5.9 42.6
23:55 1019 30.09 848 25.04 21.8 71.3 34 5.6 42.1
24:00 1019 30.09 848 25.04 22 71.7 34 5.7 42.3